Time,TemperatureF,DewpointF,PressureIn,WindDirection,WindDirectionDegrees,WindSpeedMPH,WindSpeedGustMPH,Humidity,HourlyPrecipIn,Conditions,Clouds,dailyrainin,SoftwareType,DateUTC
2014-01-01 00:00:00,23.5,-2.0,0.00,WNW,286,2.0,9.0,32,0.00,,,0.00,Weather View 32 v70,2014-01-01 05:00:00,
2014-01-01 00:08:00,23.5,-2.0,0.00,WNW,286,2.0,9.0,32,0.00,,,0.00,Weather View 32 v70,2014-01-01 05:08:00,
2014-01-01 00:15:00,23.2,-2.3,0.00,WSW,249,6.0,9.0,32,0.00,,,0.00,Weather View 32 v70,2014-01-01 05:15:00,
2014-01-01 00:30:00,22.8,-2.6,0.00,West,267,5.0,9.0,32,0.00,,,0.00,Weather View 32 v70,2014-01-01 05:30:00,
2014-01-01 00:45:00,22.6,-2.2,0.00,West,259,2.0,8.0,33,0.00,,,0.00,Weather View 32 v70,2014-01-01 05:45:00,
2014-01-01 01:00:00,22.5,-2.3,0.00,NW,307,4.0,8.0,33,0.00,,,0.00,Weather View 32 v70,2014-01-01 06:00:00,
2014-01-01 01:08:00,22.5,-2.3,0.00,NW,307,4.0,8.0,33,0.00,,,0.00,Weather View 32 v70,2014-01-01 06:08:00,
2014-01-01 01:15:00,22.5,-2.3,0.00,WNW,287,2.0,8.0,33,0.00,,,0.00,Weather View 32 v70,2014-01-01 06:15:00,
2014-01-01 01:30:00,22.3,-2.5,0.00,West,261,3.0,8.0,33,0.00,,,0.00,Weather View 32 v70,2014-01-01 06:30:00,
2014-01-01 01:45:00,21.9,-2.8,0.00,WNW,289,4.0,8.0,33,0.00,,,0.00,Weather View 32 v70,2014-01-01 06:45:00,
2014-01-01 02:00:00,21.9,-2.8,0.00,West,265,3.0,7.0,33,0.00,,,0.00,Weather View 32 v70,2014-01-01 07:00:00,
2014-01-01 02:09:00,21.9,-2.8,0.00,West,265,3.0,7.0,33,0.00,,,0.00,Weather View 32 v70,2014-01-01 07:09:00,
2014-01-01 02:15:00,21.9,-2.8,0.00,WSW,255,2.0,7.0,33,0.00,,,0.00,Weather View 32 v70,2014-01-01 07:15:00,
2014-01-01 02:29:00,21.7,-2.9,0.00,WSW,256,4.0,7.0,33,0.00,,,0.00,Weather View 32 v70,2014-01-01 07:29:00,
2014-01-01 02:44:00,21.7,-2.3,0.00,West,268,3.0,6.0,34,0.00,,,0.00,Weather View 32 v70,2014-01-01 07:44:00,
2014-01-01 03:00:00,21.6,-2.5,0.00,WSW,252,3.0,7.0,34,0.00,,,0.00,Weather View 32 v70,2014-01-01 08:00:00,
2014-01-01 03:09:00,21.6,-2.5,0.00,WSW,252,3.0,7.0,34,0.00,,,0.00,Weather View 32 v70,2014-01-01 08:09:00,
2014-01-01 03:15:00,21.6,-2.5,0.00,West,260,0.0,7.0,34,0.00,,,0.00,Weather View 32 v70,2014-01-01 08:15:00,
2014-01-01 03:30:00,21.7,-2.3,0.00,WSW,255,0.0,7.0,34,0.00,,,0.00,Weather View 32 v70,2014-01-01 08:30:00,
2014-01-01 03:45:00,21.4,-2.0,0.00,WSW,245,3.0,7.0,35,0.00,,,0.00,Weather View 32 v70,2014-01-01 08:45:00,
2014-01-01 04:00:00,21.4,-2.0,0.00,SW,232,5.0,6.0,35,0.00,,,0.00,Weather View 32 v70,2014-01-01 09:00:00,
2014-01-01 04:15:00,21.4,-2.0,0.00,SW,236,4.0,5.0,35,0.00,,,0.00,Weather View 32 v70,2014-01-01 09:15:00,
2014-01-01 04:30:00,21.2,-2.2,0.00,WSW,238,3.0,5.0,35,0.00,,,0.00,Weather View 32 v70,2014-01-01 09:30:00,
2014-01-01 04:45:00,21.0,-1.8,0.00,WSW,237,3.0,5.0,36,0.00,,,0.00,Weather View 32 v70,2014-01-01 09:45:00,
2014-01-01 05:00:00,20.8,-1.3,0.00,WSW,242,4.0,5.0,37,0.00,,,0.00,Weather View 32 v70,2014-01-01 10:00:00,
2014-01-01 05:15:00,20.7,-1.5,0.00,SW,224,3.0,4.0,37,0.00,,,0.00,Weather View 32 v70,2014-01-01 10:15:00,
2014-01-01 05:29:00,20.8,-0.8,0.00,WSW,239,3.0,4.0,38,0.00,,,0.00,Weather View 32 v70,2014-01-01 10:29:00,
2014-01-01 05:45:00,21.2,-0.5,0.00,WSW,239,0.0,4.0,38,0.00,,,0.00,Weather View 32 v70,2014-01-01 10:45:00,
2014-01-01 05:59:00,21.0,-0.6,0.00,WSW,239,3.0,4.0,38,0.00,,,0.00,Weather View 32 v70,2014-01-01 10:59:00,
2014-01-01 06:00:00,21.0,-0.6,0.00,WSW,239,3.0,4.0,38,0.00,,,0.00,Weather View 32 v70,2014-01-01 11:00:00,
2014-01-01 06:14:00,20.8,-0.2,0.00,SW,234,3.0,4.0,39,0.00,,,0.00,Weather View 32 v70,2014-01-01 11:14:00,
2014-01-01 06:29:00,20.5,1.0,0.00,SW,225,3.0,4.0,42,0.00,,,0.00,Weather View 32 v70,2014-01-01 11:29:00,
2014-01-01 06:44:00,20.7,1.7,0.00,WSW,239,0.0,4.0,43,0.00,,,0.00,Weather View 32 v70,2014-01-01 11:44:00,
2014-01-01 06:59:00,20.7,1.7,0.00,WSW,239,0.0,4.0,43,0.00,,,0.00,Weather View 32 v70,2014-01-01 11:59:00,
2014-01-01 07:00:00,20.7,1.7,0.00,WSW,239,0.0,4.0,43,0.00,,,0.00,Weather View 32 v70,2014-01-01 12:00:00,
2014-01-01 07:15:00,20.7,1.7,0.00,WSW,239,0.0,4.0,43,0.00,,,0.00,Weather View 32 v70,2014-01-01 12:15:00,
2014-01-01 07:30:00,21.0,2.0,0.00,WSW,239,0.0,4.0,43,0.00,,,0.00,Weather View 32 v70,2014-01-01 12:30:00,
2014-01-01 07:45:00,21.2,2.2,0.00,WSW,239,0.0,3.0,43,0.00,,,0.00,Weather View 32 v70,2014-01-01 12:45:00,
2014-01-01 08:00:00,21.6,2.5,0.00,WSW,239,0.0,0.0,43,0.00,,,0.00,Weather View 32 v70,2014-01-01 13:00:00,
2014-01-01 08:15:00,21.6,2.5,0.00,WSW,239,0.0,0.0,43,0.00,,,0.00,Weather View 32 v70,2014-01-01 13:15:00,
2014-01-01 08:30:00,21.9,2.8,0.00,WSW,239,0.0,0.0,43,0.00,,,0.00,Weather View 32 v70,2014-01-01 13:30:00,
2014-01-01 08:45:00,22.5,3.3,0.00,WSW,239,0.0,0.0,43,0.00,,,0.00,Weather View 32 v70,2014-01-01 13:45:00,
2014-01-01 09:00:00,23.0,2.3,0.00,WNW,286,0.0,4.0,40,0.00,,,0.00,Weather View 32 v70,2014-01-01 14:00:00,
2014-01-01 09:14:00,23.7,1.8,0.00,WNW,283,0.0,4.0,38,0.00,,,0.00,Weather View 32 v70,2014-01-01 14:14:00,
2014-01-01 09:29:00,24.4,3.0,0.00,West,260,0.0,4.0,39,0.00,,,0.00,Weather View 32 v70,2014-01-01 14:29:00,
2014-01-01 09:44:00,25.7,3.6,0.00,West,263,0.0,4.0,38,0.00,,,0.00,Weather View 32 v70,2014-01-01 14:44:00,
2014-01-01 09:59:00,28.4,3.6,0.00,WNW,282,0.0,4.0,34,0.00,,,0.00,Weather View 32 v70,2014-01-01 14:59:00,
2014-01-01 10:00:00,28.4,3.6,0.00,WNW,282,0.0,4.0,34,0.00,,,0.00,Weather View 32 v70,2014-01-01 15:00:00,
2014-01-01 10:14:00,30.2,4.5,0.00,North,353,0.0,4.0,33,0.00,,,0.00,Weather View 32 v70,2014-01-01 15:14:00,
2014-01-01 10:29:00,31.3,4.1,0.00,WNW,283,3.0,5.0,31,0.00,,,0.00,Weather View 32 v70,2014-01-01 15:29:00,
2014-01-01 10:45:00,33.3,5.9,0.00,WNW,288,3.0,6.0,31,0.00,,,0.00,Weather View 32 v70,2014-01-01 15:45:00,
2014-01-01 11:00:00,33.1,5.7,0.00,WSW,253,6.0,7.0,31,0.00,,,0.00,Weather View 32 v70,2014-01-01 16:00:00,
2014-01-01 11:15:00,34.5,6.2,0.00,SW,226,2.0,7.0,30,0.00,,,0.00,Weather View 32 v70,2014-01-01 16:15:00,
2014-01-01 11:30:00,34.3,6.1,0.00,West,265,4.0,8.0,30,0.00,,,0.00,Weather View 32 v70,2014-01-01 16:30:00,
2014-01-01 11:45:00,31.8,3.9,0.00,West,265,3.0,8.0,30,0.00,,,0.00,Weather View 32 v70,2014-01-01 16:45:00,
2014-01-01 11:59:00,31.5,4.3,0.00,WSW,253,4.0,10.0,31,0.00,,,0.00,Weather View 32 v70,2014-01-01 16:59:00,
2014-01-01 12:29:00,31.5,4.3,0.00,WSW,249,6.0,10.0,31,0.00,,,0.00,Weather View 32 v70,2014-01-01 17:29:00,
2014-01-01 12:44:00,31.6,5.1,0.00,NW,326,3.0,10.0,32,0.00,,,0.00,Weather View 32 v70,2014-01-01 17:44:00,
2014-01-01 12:59:00,31.3,4.8,0.00,WNW,286,6.0,8.0,32,0.00,,,0.00,Weather View 32 v70,2014-01-01 17:59:00,
2014-01-01 13:15:00,31.1,5.3,0.00,WSW,237,3.0,8.0,33,0.00,,,0.00,Weather View 32 v70,2014-01-01 18:15:00,
2014-01-01 13:30:00,31.8,6.0,0.00,West,270,0.0,8.0,33,0.00,,,0.00,Weather View 32 v70,2014-01-01 18:30:00,
2014-01-01 13:45:00,31.5,5.6,0.00,SW,229,4.0,8.0,33,0.00,,,0.00,Weather View 32 v70,2014-01-01 18:45:00,
2014-01-01 14:00:00,31.6,6.5,0.00,NNW,337,3.0,8.0,34,0.00,,,0.00,Weather View 32 v70,2014-01-01 19:00:00,
2014-01-01 14:15:00,32.2,6.9,0.00,West,275,3.0,6.0,34,0.00,,,0.00,Weather View 32 v70,2014-01-01 19:15:00,
2014-01-01 14:29:00,32.2,6.9,0.00,NNW,342,2.0,6.0,34,0.00,,,0.00,Weather View 32 v70,2014-01-01 19:29:00,
2014-01-01 14:44:00,32.5,7.3,0.00,WSW,258,0.0,6.0,34,0.00,,,0.00,Weather View 32 v70,2014-01-01 19:44:00,
2014-01-01 14:59:00,32.4,7.1,0.00,West,278,3.0,6.0,34,0.00,,,0.00,Weather View 32 v70,2014-01-01 19:59:00,
2014-01-01 15:14:00,32.5,7.3,0.00,West,274,0.0,6.0,34,0.00,,,0.00,Weather View 32 v70,2014-01-01 20:14:00,
2014-01-01 15:30:00,32.5,7.3,0.00,WNW,295,3.0,6.0,34,0.00,,,0.00,Weather View 32 v70,2014-01-01 20:30:00,
2014-01-01 15:45:00,32.2,6.9,0.00,West,259,2.0,5.0,34,0.00,,,0.00,Weather View 32 v70,2014-01-01 20:45:00,
2014-01-01 16:00:00,32.0,7.4,0.00,West,263,0.0,4.0,35,0.00,,,0.00,Weather View 32 v70,2014-01-01 21:00:00,
2014-01-01 16:15:00,32.2,8.2,0.00,West,264,0.0,4.0,36,0.00,,,0.00,Weather View 32 v70,2014-01-01 21:15:00,
2014-01-01 16:30:00,32.0,7.4,0.00,West,264,0.0,4.0,35,0.00,,,0.00,Weather View 32 v70,2014-01-01 21:30:00,
2014-01-01 16:45:00,31.3,7.4,0.00,West,264,0.0,4.0,36,0.00,,,0.00,Weather View 32 v70,2014-01-01 21:45:00,
2014-01-01 17:00:00,30.9,7.7,0.00,SW,231,0.0,3.0,37,0.00,,,0.00,Weather View 32 v70,2014-01-01 22:00:00,
2014-01-01 17:15:00,30.9,8.9,0.00,SSW,201,0.0,3.0,39,0.00,,,0.00,Weather View 32 v70,2014-01-01 22:15:00,
2014-01-01 17:30:00,30.9,8.9,0.00,SSW,201,0.0,3.0,39,0.00,,,0.00,Weather View 32 v70,2014-01-01 22:30:00,
2014-01-01 17:45:00,31.1,9.6,0.00,SSW,201,0.0,3.0,40,0.00,,,0.00,Weather View 32 v70,2014-01-01 22:45:00,
2014-01-01 18:00:00,31.1,9.6,0.00,SSW,201,0.0,2.0,40,0.00,,,0.00,Weather View 32 v70,2014-01-01 23:00:00,
2014-01-01 18:15:00,30.6,9.1,0.00,SSW,201,0.0,0.0,40,0.00,,,0.00,Weather View 32 v70,2014-01-01 23:15:00,
2014-01-01 18:30:00,30.6,9.6,0.00,South,171,0.0,0.0,41,0.00,,,0.00,Weather View 32 v70,2014-01-01 23:30:00,
2014-01-01 18:45:00,30.4,9.5,0.00,South,171,0.0,0.0,41,0.00,,,0.00,Weather View 32 v70,2014-01-01 23:45:00,
2014-01-01 19:00:00,30.4,9.5,0.00,SSE,168,0.0,0.0,41,0.00,,,0.00,Weather View 32 v70,2014-01-02 00:00:00,
2014-01-01 19:15:00,30.4,10.0,0.00,SSE,162,0.0,0.0,42,0.00,,,0.00,Weather View 32 v70,2014-01-02 00:15:00,
2014-01-01 19:30:00,30.2,9.9,0.00,SSE,154,0.0,0.0,42,0.00,,,0.00,Weather View 32 v70,2014-01-02 00:30:00,
2014-01-01 19:45:00,30.2,9.9,0.00,SSE,154,0.0,0.0,42,0.00,,,0.00,Weather View 32 v70,2014-01-02 00:45:00,
2014-01-01 20:00:00,29.8,10.1,0.00,SE,133,0.0,0.0,43,0.00,,,0.00,Weather View 32 v70,2014-01-02 01:00:00,
2014-01-01 20:15:00,30.0,9.7,0.00,East,97,3.0,3.0,42,0.00,,,0.00,Weather View 32 v70,2014-01-02 01:15:00,
2014-01-01 20:30:00,29.8,9.5,0.00,NNE,27,2.0,4.0,42,0.00,,,0.00,Weather View 32 v70,2014-01-02 01:30:00,
2014-01-01 20:45:00,29.8,9.0,0.00,NE,37,2.0,5.0,41,0.00,,,0.00,Weather View 32 v70,2014-01-02 01:45:00,
2014-01-01 21:00:00,29.7,8.8,0.00,NE,34,4.0,5.0,41,0.00,,,0.00,Weather View 32 v70,2014-01-02 02:00:00,
2014-01-01 21:15:00,29.8,9.0,0.00,NE,35,4.0,6.0,41,0.00,,,0.00,Weather View 32 v70,2014-01-02 02:15:00,
2014-01-01 21:30:00,29.5,9.2,0.00,ENE,62,3.0,6.0,42,0.00,,,0.00,Weather View 32 v70,2014-01-02 02:30:00,
2014-01-01 21:45:00,29.5,9.2,0.00,NE,38,3.0,6.0,42,0.00,,,0.00,Weather View 32 v70,2014-01-02 02:45:00,
2014-01-01 22:00:00,29.5,9.7,0.00,NE,40,3.0,6.0,43,0.00,,,0.00,Weather View 32 v70,2014-01-02 03:00:00,
2014-01-01 22:15:00,29.7,9.9,0.00,ENE,76,0.0,5.0,43,0.00,,,0.00,Weather View 32 v70,2014-01-02 03:15:00,
2014-01-01 22:20:00,29.7,9.9,0.00,ENE,76,0.0,5.0,43,0.00,,,0.00,Weather View 32 v70,2014-01-02 03:20:00,
2014-01-01 22:30:00,29.5,9.7,0.00,NE,47,3.0,4.0,43,0.00,,,0.00,Weather View 32 v70,2014-01-02 03:30:00,
2014-01-01 22:45:00,29.7,10.4,0.00,NE,45,3.0,5.0,44,0.00,,,0.00,Weather View 32 v70,2014-01-02 03:45:00,
2014-01-01 23:00:00,29.7,9.9,0.00,NE,36,3.0,5.0,43,0.00,,,0.00,Weather View 32 v70,2014-01-02 04:00:00,
2014-01-01 23:15:00,29.7,10.4,0.00,NE,48,2.0,5.0,44,0.00,,,0.00,Weather View 32 v70,2014-01-02 04:15:00,
2014-01-01 23:20:00,29.7,10.4,0.00,NE,48,2.0,5.0,44,0.00,,,0.00,Weather View 32 v70,2014-01-02 04:20:00,
2014-01-01 23:30:00,29.7,10.4,0.00,NE,56,4.0,6.0,44,0.00,,,0.00,Weather View 32 v70,2014-01-02 04:30:00,
2014-01-01 23:45:00,29.5,10.7,0.00,NE,51,3.0,6.0,45,0.00,,,0.00,Weather View 32 v70,2014-01-02 04:45:00,